Time;durP1;ratioP1;P1;durP2;ratioP2;P2;SDS_P1;SDS_P2;PMS_P1;PMS_P2;Temp;Humidity;BMP_temperature;BMP_pressure;BME280_temperature;BME280_humidity;BME280_pressure;Samples;Min_cycle;Max_cycle;Signal;HPM_P1;HPM_P2
2022/01/26 00:06:08;;;;;;;91.50;32.63;;;3.00;99.90;;;;;;5038345;28;20040;-46
2022/01/26 00:08:35;;;;;;;85.22;32.03;;;3.00;99.90;;;;;;5041621;28;20045;-45
2022/01/26 00:11:01;;;;;;;85.00;30.60;;;3.00;99.90;;;;;;5048562;28;20133;-45
2022/01/26 00:13:26;;;;;;;88.38;32.75;;;3.00;99.90;;;;;;5049096;28;20029;-49
2022/01/26 00:15:53;;;;;;;91.47;32.85;;;3.00;99.90;;;;;;5043990;28;20157;-48
2022/01/26 00:18:21;;;;;;;89.63;32.13;;;3.00;99.90;;;;;;5043045;28;20508;-47
2022/01/26 00:20:57;;;;;;;89.38;30.27;;;2.90;99.90;;;;;;5037850;28;20508;-48
2022/01/26 00:26:31;;;;;;;85.60;31.40;;;2.90;99.90;;;;;;5040328;28;20401;-48
2022/01/26 00:29:14;;;;;;;92.55;31.20;;;2.90;99.90;;;;;;5031697;28;20056;-47
2022/01/26 00:40:04;;;;;;;87.70;33.85;;;2.90;99.90;;;;;;5040145;28;20096;-45
2022/01/26 00:42:36;;;;;;;93.93;34.13;;;2.80;99.90;;;;;;5038062;28;20468;-46
2022/01/26 00:45:02;;;;;;;97.20;32.22;;;2.80;99.90;;;;;;5032094;28;20112;-45
2022/01/26 00:47:28;;;;;;;89.65;32.97;;;2.80;99.90;;;;;;5051080;28;20101;-46
2022/01/26 00:49:58;;;;;;;98.25;33.28;;;2.80;99.90;;;;;;5038247;28;20057;-47
2022/01/26 00:52:38;;;;;;;90.00;32.70;;;2.80;99.90;;;;;;5033219;28;20025;-45
2022/01/26 00:55:06;;;;;;;87.78;31.63;;;2.80;99.90;;;;;;5033643;28;20104;-45
2022/01/26 00:57:32;;;;;;;86.18;29.40;;;2.80;99.90;;;;;;5039426;28;20029;-47
2022/01/26 00:59:59;;;;;;;84.70;31.58;;;2.80;99.90;;;;;;5037117;28;20056;-46
2022/01/26 01:02:25;;;;;;;85.68;31.52;;;2.80;99.90;;;;;;5035429;28;20059;-46
2022/01/26 01:04:51;;;;;;;85.90;31.20;;;2.80;99.90;;;;;;5039126;28;20037;-47
2022/01/26 01:07:20;;;;;;;87.72;31.75;;;2.80;99.90;;;;;;5040581;28;20065;-46
2022/01/26 01:09:46;;;;;;;83.95;30.85;;;2.80;99.90;;;;;;5037675;28;20055;-45
2022/01/26 01:12:13;;;;;;;79.90;29.98;;;2.80;99.90;;;;;;5033394;28;20045;-45
2022/01/26 01:14:41;;;;;;;92.55;30.52;;;2.80;99.90;;;;;;5035149;28;20025;-45
2022/01/26 01:17:11;;;;;;;85.03;31.10;;;2.80;99.90;;;;;;5035058;28;20025;-46
2022/01/26 01:19:43;;;;;;;86.15;30.73;;;2.80;99.90;;;;;;5038918;28;20128;-46
2022/01/26 01:30:38;;;;;;;86.90;31.73;;;2.70;99.90;;;;;;5035967;28;20069;-45
2022/01/26 01:33:07;;;;;;;82.80;29.90;;;2.70;99.90;;;;;;5039953;28;20033;-46
2022/01/26 01:35:36;;;;;;;88.70;31.83;;;2.70;99.90;;;;;;5049666;28;20330;-47
2022/01/26 01:38:09;;;;;;;90.72;31.60;;;2.70;99.90;;;;;;5039020;28;20045;-46
2022/01/26 01:40:37;;;;;;;90.43;31.35;;;2.70;99.90;;;;;;5051628;28;20048;-47
2022/01/26 01:43:04;;;;;;;85.00;31.48;;;2.70;99.90;;;;;;5034942;28;20394;-45
2022/01/26 01:45:34;;;;;;;84.60;31.50;;;2.70;99.90;;;;;;5036319;28;20060;-45
2022/01/26 01:48:00;;;;;;;88.80;30.50;;;2.70;99.90;;;;;;5035257;28;20033;-46
2022/01/26 01:50:26;;;;;;;88.35;32.10;;;2.60;99.90;;;;;;5037114;28;20054;-48
2022/01/26 01:52:59;;;;;;;86.85;30.90;;;2.70;99.90;;;;;;5037649;28;20041;-45
2022/01/26 01:55:27;;;;;;;86.55;31.05;;;2.60;99.90;;;;;;5036356;28;20091;-45
2022/01/26 01:57:53;;;;;;;90.63;31.88;;;2.60;99.90;;;;;;5037539;28;20057;-49
2022/01/26 02:00:19;;;;;;;87.03;31.15;;;2.60;99.90;;;;;;5032845;28;20437;-47
2022/01/26 02:02:45;;;;;;;86.55;31.92;;;2.60;99.90;;;;;;5036837;28;20041;-46
2022/01/26 02:05:10;;;;;;;82.25;31.02;;;2.60;99.90;;;;;;5038919;28;20089;-45
2022/01/26 02:07:36;;;;;;;89.07;29.48;;;2.60;99.90;;;;;;5036386;28;20041;-45
2022/01/26 02:10:03;;;;;;;86.10;30.77;;;2.60;99.90;;;;;;5038494;28;20029;-45
2022/01/26 02:12:31;;;;;;;87.32;29.67;;;2.60;99.90;;;;;;5038608;28;20025;-46
2022/01/26 02:15:06;;;;;;;98.57;33.13;;;2.60;99.90;;;;;;5040098;28;20033;-45
2022/01/26 02:55:18;;;;;;;91.05;32.05;;;2.50;99.90;;;;;;5042269;28;20045;-46
2022/01/26 02:58:58;;;;;;;;;;;2.50;99.90;;;;;;5038703;28;20120;-46
2022/01/26 03:00:46;;;;;;;92.35;32.47;;;2.50;99.90;;;;;;5039035;28;20315;-45
2022/01/26 03:05:48;;;;;;;96.38;34.13;;;2.50;99.90;;;;;;5042488;28;20044;-45
2022/01/26 03:08:14;;;;;;;97.97;33.95;;;2.50;99.90;;;;;;5047859;28;20021;-45
2022/01/26 03:10:52;;;;;;;94.60;32.67;;;2.50;99.90;;;;;;5042521;28;20041;-45
2022/01/26 03:13:23;;;;;;;98.10;31.60;;;2.50;99.90;;;;;;5039001;28;20042;-48
2022/01/26 03:15:57;;;;;;;99.22;32.28;;;2.40;99.90;;;;;;5038627;28;20041;-46
2022/01/26 03:20:50;;;;;;;96.10;32.35;;;2.40;99.90;;;;;;5038026;28;20042;-46
2022/01/26 03:34:01;;;;;;;92.85;31.83;;;2.40;99.90;;;;;;5039337;28;20064;-45
2022/01/26 03:36:31;;;;;;;97.93;31.88;;;2.40;99.90;;;;;;5039829;28;20043;-45
2022/01/26 03:39:01;;;;;;;91.50;32.72;;;2.40;99.90;;;;;;5035944;28;20037;-45
2022/01/26 03:43:53;;;;;;;92.20;32.30;;;2.40;99.90;;;;;;5039012;28;20044;-45
2022/01/26 03:46:18;;;;;;;95.93;32.67;;;2.40;99.90;;;;;;5035409;28;20042;-45
2022/01/26 03:48:44;;;;;;;91.60;31.27;;;2.40;99.90;;;;;;5037231;28;20021;-46
2022/01/26 03:51:10;;;;;;;94.53;34.03;;;2.40;99.90;;;;;;5035829;28;20065;-45
2022/01/26 03:53:35;;;;;;;101.93;35.42;;;2.40;99.90;;;;;;5044107;28;20076;-45
2022/01/26 03:56:01;;;;;;;86.53;30.08;;;2.40;99.90;;;;;;5040099;28;20042;-45
2022/01/26 03:58:27;;;;;;;99.22;32.38;;;2.40;99.90;;;;;;5041387;28;20052;-45
2022/01/26 04:00:52;;;;;;;91.70;31.45;;;2.40;99.90;;;;;;5037768;28;20034;-45
2022/01/26 04:03:18;;;;;;;94.45;31.95;;;2.40;99.90;;;;;;5039710;28;20104;-45
2022/01/26 04:05:44;;;;;;;94.40;32.65;;;2.40;99.90;;;;;;5039752;28;20037;-45
2022/01/26 04:08:16;;;;;;;89.10;32.20;;;2.40;99.90;;;;;;5041523;28;20029;-46
2022/01/26 04:11:15;;;;;;;86.88;30.27;;;2.50;99.90;;;;;;5041077;28;20040;-46
2022/01/26 04:13:41;;;;;;;90.53;30.58;;;2.40;99.90;;;;;;5058009;28;20052;-45
2022/01/26 04:16:08;;;;;;;90.90;31.80;;;2.40;99.90;;;;;;5051898;28;20025;-46
2022/01/26 04:18:37;;;;;;;86.68;31.05;;;2.40;99.90;;;;;;5035427;28;20022;-46
2022/01/26 04:21:17;;;;;;;87.30;32.17;;;2.50;99.90;;;;;;5040339;28;20025;-46
2022/01/26 04:23:51;;;;;;;92.63;30.92;;;2.40;99.90;;;;;;5043805;28;20051;-48
2022/01/26 04:26:22;;;;;;;94.18;30.55;;;2.50;99.90;;;;;;5039692;28;20050;-45
2022/01/26 04:28:54;;;;;;;91.28;31.48;;;2.40;99.90;;;;;;5040927;28;20029;-46
2022/01/26 04:31:22;;;;;;;96.72;33.08;;;2.40;99.90;;;;;;5049824;28;20021;-45
2022/01/26 04:33:48;;;;;;;90.85;30.15;;;2.50;99.90;;;;;;5039663;28;20029;-46
2022/01/26 04:36:21;;;;;;;84.10;28.60;;;2.50;99.90;;;;;;5042073;28;20303;-47
2022/01/26 04:38:52;;;;;;;93.60;30.75;;;2.40;99.90;;;;;;5050423;28;20025;-46
2022/01/26 04:43:50;;;;;;;77.93;30.27;;;2.40;99.90;;;;;;5039791;28;20053;-44
2022/01/26 04:46:15;;;;;;;83.90;30.77;;;2.40;99.90;;;;;;5037054;28;20053;-45
2022/01/26 04:48:41;;;;;;;88.32;31.23;;;2.40;99.90;;;;;;5038845;28;20109;-46
2022/01/26 04:51:07;;;;;;;90.05;31.15;;;2.40;99.90;;;;;;5036946;28;20448;-46
2022/01/26 04:53:32;;;;;;;87.18;30.40;;;2.40;99.90;;;;;;5040025;28;20032;-46
2022/01/26 04:55:58;;;;;;;92.32;29.58;;;2.40;99.90;;;;;;5039095;28;20057;-45
2022/01/26 04:58:23;;;;;;;89.38;29.45;;;2.40;99.90;;;;;;5037726;28;20455;-45
2022/01/26 05:00:49;;;;;;;78.80;28.83;;;2.40;99.90;;;;;;5040427;28;20033;-45
2022/01/26 05:03:15;;;;;;;88.80;29.52;;;2.40;99.90;;;;;;5036105;28;20034;-47
2022/01/26 05:05:41;;;;;;;82.40;28.35;;;2.40;99.90;;;;;;5036529;28;20033;-45
2022/01/26 05:08:06;;;;;;;84.97;28.67;;;2.40;99.90;;;;;;5038592;28;20025;-45
2022/01/26 05:10:32;;;;;;;90.78;28.98;;;2.40;99.90;;;;;;5040205;28;20041;-45
2022/01/26 05:12:58;;;;;;;86.00;29.92;;;2.40;99.90;;;;;;5038532;28;20132;-46
2022/01/26 05:15:25;;;;;;;84.50;30.48;;;2.40;99.90;;;;;;5037746;28;20034;-45
2022/01/26 05:17:52;;;;;;;83.63;28.73;;;2.40;99.90;;;;;;5040206;28;20026;-45
2022/01/26 05:20:17;;;;;;;88.43;27.65;;;2.40;99.90;;;;;;5037650;28;20034;-46
2022/01/26 05:22:44;;;;;;;75.28;26.30;;;2.40;99.90;;;;;;5034976;28;20047;-46
2022/01/26 05:25:11;;;;;;;86.65;27.92;;;2.40;99.90;;;;;;5049470;28;20107;-46
2022/01/26 05:27:37;;;;;;;84.30;28.75;;;2.40;99.90;;;;;;5039471;28;20510;-46
2022/01/26 05:30:04;;;;;;;82.00;27.42;;;2.40;99.90;;;;;;5033029;28;20021;-45
2022/01/26 05:32:30;;;;;;;82.10;28.08;;;2.40;99.90;;;;;;5035454;28;20068;-45
2022/01/26 05:34:55;;;;;;;79.65;28.25;;;2.40;99.90;;;;;;5036542;28;20033;-45
2022/01/26 05:37:21;;;;;;;83.10;27.05;;;2.40;99.90;;;;;;5036469;28;20995;-46
2022/01/26 05:39:47;;;;;;;81.70;26.33;;;2.40;99.90;;;;;;5036860;28;20042;-46
2022/01/26 05:42:13;;;;;;;80.70;26.10;;;2.40;99.90;;;;;;5035526;28;20389;-45
2022/01/26 05:44:38;;;;;;;72.97;24.65;;;2.40;99.90;;;;;;5038683;28;20083;-46
2022/01/26 05:47:08;;;;;;;75.38;25.98;;;2.40;99.90;;;;;;5038848;28;20045;-47
2022/01/26 05:49:33;;;;;;;78.50;26.05;;;2.40;99.90;;;;;;5037390;28;20083;-47
2022/01/26 05:51:59;;;;;;;67.68;24.48;;;2.40;99.90;;;;;;5037404;28;20397;-46
2022/01/26 05:54:24;;;;;;;74.55;24.30;;;2.40;99.90;;;;;;5036987;28;20116;-45
2022/01/26 05:56:50;;;;;;;70.72;27.13;;;2.40;99.90;;;;;;5036762;28;20030;-45
2022/01/26 05:59:19;;;;;;;75.97;25.50;;;2.40;99.90;;;;;;5037784;28;20173;-46
2022/01/26 06:01:46;;;;;;;74.53;26.27;;;2.40;99.90;;;;;;5033830;28;20037;-46
2022/01/26 06:04:11;;;;;;;71.88;24.67;;;2.40;99.90;;;;;;5035248;28;20052;-47
2022/01/26 06:06:37;;;;;;;70.97;23.90;;;2.40;99.90;;;;;;5039504;28;20038;-46
2022/01/26 06:09:03;;;;;;;70.40;26.00;;;2.40;99.90;;;;;;5037499;28;20032;-46
2022/01/26 06:11:29;;;;;;;77.57;28.05;;;2.30;99.90;;;;;;5037953;28;20049;-46
2022/01/26 06:13:55;;;;;;;71.35;25.70;;;2.40;99.90;;;;;;5034291;28;20044;-45
2022/01/26 06:16:21;;;;;;;73.28;24.98;;;2.40;99.90;;;;;;5040225;28;20025;-46
2022/01/26 06:18:47;;;;;;;66.03;23.23;;;2.40;99.90;;;;;;5037868;28;20037;-45
2022/01/26 06:21:13;;;;;;;60.65;22.60;;;2.40;99.90;;;;;;5034270;28;20026;-45
2022/01/26 06:23:39;;;;;;;64.13;24.80;;;2.40;99.90;;;;;;5034600;28;20030;-47
2022/01/26 06:26:05;;;;;;;66.05;23.55;;;2.30;99.90;;;;;;5050260;28;20060;-46
2022/01/26 06:28:30;;;;;;;65.32;22.83;;;2.40;99.90;;;;;;5042654;28;20049;-45
2022/01/26 06:31:09;;;;;;;63.00;24.27;;;2.40;99.90;;;;;;5041812;28;20033;-45
2022/01/26 06:33:36;;;;;;;65.97;24.40;;;2.40;99.90;;;;;;5041882;28;20041;-46
2022/01/26 06:36:03;;;;;;;78.40;24.90;;;2.40;99.90;;;;;;5055421;28;20041;-46
2022/01/26 06:38:29;;;;;;;70.32;23.60;;;2.40;99.90;;;;;;5039799;28;20040;-45
2022/01/26 06:40:58;;;;;;;57.80;21.92;;;2.40;99.90;;;;;;5037859;28;20018;-46
2022/01/26 06:43:27;;;;;;;68.53;23.85;;;2.40;99.90;;;;;;5036691;28;20022;-47
2022/01/26 06:46:05;;;;;;;63.65;23.70;;;2.40;99.90;;;;;;5041557;28;20045;-47
2022/01/26 06:51:00;;;;;;;65.95;22.58;;;2.50;99.90;;;;;;5036669;28;20049;-49
2022/01/26 06:53:26;;;;;;;61.05;21.33;;;2.50;99.90;;;;;;5034821;28;20022;-51
2022/01/26 06:55:52;;;;;;;64.85;22.88;;;2.40;99.90;;;;;;5032938;28;20033;-48
2022/01/26 06:58:18;;;;;;;58.38;21.77;;;2.50;99.90;;;;;;5036446;28;20039;-50
2022/01/26 07:00:44;;;;;;;64.00;23.42;;;2.40;99.90;;;;;;5039093;28;20033;-48
2022/01/26 07:03:10;;;;;;;63.60;22.52;;;2.40;99.90;;;;;;5038709;28;20038;-46
2022/01/26 07:05:35;;;;;;;63.22;22.35;;;2.40;99.90;;;;;;5036947;28;20076;-43
2022/01/26 07:08:02;;;;;;;62.60;22.88;;;2.40;99.90;;;;;;5035468;28;20030;-43
2022/01/26 07:10:28;;;;;;;62.42;23.30;;;2.40;99.90;;;;;;5037012;28;20029;-44
2022/01/26 07:12:54;;;;;;;64.05;22.92;;;2.40;99.90;;;;;;5046077;28;20344;-47
2022/01/26 07:23:41;;;;;;;73.68;25.25;;;2.50;99.90;;;;;;5041476;28;20033;-46
2022/01/26 07:26:06;;;;;;;70.72;25.60;;;2.50;99.90;;;;;;5039411;28;20042;-46
2022/01/26 07:28:36;;;;;;;65.30;25.35;;;2.50;99.90;;;;;;5041843;28;20033;-45
2022/01/26 07:31:03;;;;;;;69.43;27.52;;;2.50;99.90;;;;;;5053649;28;20040;-45
2022/01/26 07:33:29;;;;;;;71.28;26.90;;;2.50;99.90;;;;;;5041059;28;20021;-47
2022/01/26 07:35:54;;;;;;;75.97;28.25;;;2.50;99.90;;;;;;5039610;28;20040;-46
2022/01/26 07:38:20;;;;;;;74.13;26.63;;;2.50;99.90;;;;;;5038705;28;20088;-47
2022/01/26 07:40:46;;;;;;;78.20;29.83;;;2.50;99.90;;;;;;5040586;28;20080;-45
2022/01/26 07:43:12;;;;;;;80.18;30.90;;;2.50;99.90;;;;;;5040595;28;20025;-45
2022/01/26 07:45:37;;;;;;;83.55;30.50;;;2.60;99.90;;;;;;5040752;28;20041;-45
2022/01/26 07:48:04;;;;;;;81.20;31.48;;;2.60;99.90;;;;;;5039999;28;20025;-45
2022/01/26 07:50:29;;;;;;;83.85;30.05;;;2.60;99.90;;;;;;5040396;28;20033;-46
2022/01/26 07:52:55;;;;;;;79.70;31.00;;;2.60;99.90;;;;;;5040402;28;20028;-46
2022/01/26 07:55:22;;;;;;;91.28;35.47;;;2.60;99.90;;;;;;5038346;28;20089;-46
2022/01/26 07:57:50;;;;;;;80.97;31.42;;;2.60;99.90;;;;;;5040203;28;20017;-45
2022/01/26 08:00:17;;;;;;;93.78;33.15;;;2.60;99.90;;;;;;5038239;28;20108;-46
2022/01/26 08:02:43;;;;;;;94.40;34.58;;;2.60;99.90;;;;;;5040776;28;20120;-48
2022/01/26 08:05:10;;;;;;;98.47;34.92;;;2.60;99.90;;;;;;5040051;28;20042;-46
2022/01/26 08:07:36;;;;;;;95.88;35.10;;;2.70;99.90;;;;;;5040092;28;20447;-46
2022/01/26 08:10:03;;;;;;;102.90;38.15;;;2.70;99.90;;;;;;5040284;28;20053;-46
2022/01/26 08:12:29;;;;;;;111.88;40.35;;;2.70;99.90;;;;;;5039572;28;20905;-46
2022/01/26 08:14:54;;;;;;;113.88;39.15;;;2.70;99.90;;;;;;5040276;28;20032;-47
2022/01/26 08:17:20;;;;;;;110.03;40.20;;;2.70;99.90;;;;;;5036281;28;20093;-46
2022/01/26 08:19:46;;;;;;;119.95;42.33;;;2.70;99.90;;;;;;5039724;28;20021;-45
2022/01/26 08:22:18;;;;;;;111.15;44.38;;;2.70;99.90;;;;;;5039645;28;20449;-45
2022/01/26 08:24:44;;;;;;;122.90;44.45;;;2.70;99.90;;;;;;5038634;28;20041;-44
2022/01/26 08:27:12;;;;;;;120.03;43.67;;;2.80;99.90;;;;;;5034699;28;20044;-44
2022/01/26 08:29:42;;;;;;;119.82;45.35;;;2.80;99.90;;;;;;5037137;28;20048;-44
2022/01/26 08:32:08;;;;;;;115.18;46.97;;;2.80;99.90;;;;;;5040950;28;20095;-45
2022/01/26 08:34:34;;;;;;;121.47;45.13;;;2.80;99.90;;;;;;5042431;28;20030;-45
2022/01/26 08:37:00;;;;;;;132.15;48.72;;;2.80;99.90;;;;;;5043215;28;20056;-46
2022/01/26 08:39:26;;;;;;;131.02;51.80;;;2.90;99.90;;;;;;5042696;28;20033;-46
2022/01/26 08:41:52;;;;;;;140.32;49.70;;;2.90;99.90;;;;;;5042286;28;20025;-45
2022/01/26 08:44:18;;;;;;;133.07;49.67;;;2.90;99.90;;;;;;5043057;28;20034;-45
2022/01/26 08:46:43;;;;;;;137.73;51.28;;;2.90;99.90;;;;;;5041794;28;20049;-45
2022/01/26 08:49:10;;;;;;;136.30;49.38;;;3.00;99.90;;;;;;5042259;28;20049;-44
2022/01/26 08:51:36;;;;;;;139.60;49.80;;;3.00;99.90;;;;;;5041647;28;20393;-45
2022/01/26 08:54:02;;;;;;;139.45;50.15;;;3.00;99.90;;;;;;5042732;28;20021;-44
2022/01/26 08:56:28;;;;;;;142.25;50.88;;;3.10;99.90;;;;;;5042120;28;20536;-44
2022/01/26 08:58:54;;;;;;;139.57;50.63;;;3.00;99.90;;;;;;5057454;28;20037;-44
2022/01/26 09:01:20;;;;;;;147.07;51.90;;;3.10;99.90;;;;;;5042293;28;20024;-44
2022/01/26 09:03:46;;;;;;;142.65;53.05;;;3.10;99.90;;;;;;5041556;28;20053;-44
2022/01/26 09:06:12;;;;;;;145.43;53.78;;;3.10;99.90;;;;;;5042660;28;20092;-46
2022/01/26 09:08:41;;;;;;;142.88;55.47;;;3.10;99.90;;;;;;5041521;28;20041;-45
2022/01/26 09:11:10;;;;;;;144.63;53.08;;;3.10;99.90;;;;;;5042831;28;20092;-44
2022/01/26 09:13:36;;;;;;;146.77;52.60;;;3.20;99.90;;;;;;5056628;28;20022;-45
2022/01/26 09:16:06;;;;;;;148.48;53.30;;;3.20;99.90;;;;;;5042400;28;20460;-44
2022/01/26 09:21:05;;;;;;;142.52;52.50;;;3.20;99.90;;;;;;5041642;28;20036;-45
2022/01/26 09:23:31;;;;;;;138.32;54.08;;;3.20;99.90;;;;;;5042269;28;20035;-47
2022/01/26 09:25:57;;;;;;;146.75;54.22;;;3.20;99.90;;;;;;5041375;28;20029;-47
2022/01/26 09:28:24;;;;;;;153.15;54.45;;;3.20;99.90;;;;;;5042660;28;20049;-45
2022/01/26 09:30:50;;;;;;;155.10;54.38;;;3.30;99.90;;;;;;5039419;28;20473;-45
2022/01/26 09:33:16;;;;;;;149.70;54.53;;;3.30;99.90;;;;;;5041554;28;20109;-45
2022/01/26 09:35:42;;;;;;;141.45;51.78;;;3.30;99.90;;;;;;5040671;28;20490;-44
2022/01/26 09:38:07;;;;;;;149.88;53.03;;;3.30;99.90;;;;;;5040086;28;20485;-44
2022/01/26 09:40:33;;;;;;;147.10;51.58;;;3.30;99.90;;;;;;5040607;28;20049;-47
2022/01/26 09:43:00;;;;;;;142.85;50.83;;;3.40;99.90;;;;;;5041348;28;20056;-46
2022/01/26 09:45:25;;;;;;;134.77;49.30;;;3.40;99.90;;;;;;5041787;28;20160;-44
2022/01/26 09:47:51;;;;;;;126.30;46.25;;;3.40;99.90;;;;;;5041228;28;20481;-45
2022/01/26 09:50:17;;;;;;;130.02;49.17;;;3.40;99.90;;;;;;5041328;28;20048;-46
2022/01/26 09:52:47;;;;;;;134.73;47.42;;;3.50;99.90;;;;;;5057314;28;20075;-45
2022/01/26 09:55:14;;;;;;;135.88;48.28;;;3.50;99.90;;;;;;5040455;28;20025;-45
2022/01/26 09:57:42;;;;;;;133.98;48.85;;;3.50;99.90;;;;;;5041495;28;20022;-45
2022/01/26 10:00:08;;;;;;;119.35;44.08;;;3.60;99.90;;;;;;5040847;28;20034;-46
2022/01/26 10:02:35;;;;;;;128.35;46.35;;;3.60;99.90;;;;;;5045427;28;20053;-45
2022/01/26 10:05:07;;;;;;;124.47;46.63;;;3.60;99.90;;;;;;5044141;28;20038;-44
2022/01/26 10:15:36;;;;;;;120.05;44.85;;;3.70;99.90;;;;;;5046515;28;20106;-45
2022/01/26 10:18:09;;;;;;;115.40;44.60;;;3.70;99.90;;;;;;5045273;28;20040;-46
2022/01/26 10:20:45;;;;;;;111.28;43.17;;;3.70;99.90;;;;;;5045176;28;20057;-46
2022/01/26 10:23:18;;;;;;;117.75;44.47;;;3.80;99.90;;;;;;5045183;28;20052;-45
2022/01/26 10:26:03;;;;;;;122.43;44.28;;;3.80;99.90;;;;;;5044554;28;20389;-45
2022/01/26 10:28:56;;;;;;;117.25;44.15;;;3.80;99.90;;;;;;5041283;28;20176;-46
2022/01/26 10:31:39;;;;;;;118.72;44.67;;;3.80;99.90;;;;;;5031662;28;20040;-46
2022/01/26 10:34:10;;;;;;;117.40;46.65;;;3.90;99.90;;;;;;5025166;28;20037;-46
2022/01/26 10:36:44;;;;;;;112.18;44.58;;;3.90;99.90;;;;;;5032687;28;20059;-45
2022/01/26 10:39:42;;;;;;;118.47;45.05;;;3.90;99.90;;;;;;5040959;28;20557;-46
2022/01/26 10:42:07;;;;;;;113.20;44.22;;;3.90;99.90;;;;;;5041806;28;20049;-47
2022/01/26 10:44:45;;;;;;;110.47;44.27;;;3.90;99.90;;;;;;5043570;28;20145;-45
2022/01/26 10:47:15;;;;;;;111.60;41.75;;;3.90;99.90;;;;;;5041351;28;20029;-46
2022/01/26 10:50:07;;;;;;;114.35;43.25;;;4.00;99.90;;;;;;5044348;28;20025;-49
2022/01/26 10:52:36;;;;;;;105.43;42.55;;;4.00;99.90;;;;;;5041662;28;20467;-49
2022/01/26 10:55:03;;;;;;;108.97;41.92;;;4.00;99.90;;;;;;5042707;28;20050;-47
2022/01/26 10:57:29;;;;;;;114.57;41.78;;;4.10;99.90;;;;;;5041505;28;20030;-46
2022/01/26 10:59:55;;;;;;;120.28;45.05;;;4.10;99.90;;;;;;5041557;28;20512;-46
2022/01/26 11:02:25;;;;;;;114.20;44.58;;;4.10;99.90;;;;;;5041923;28;20768;-47
2022/01/26 11:04:51;;;;;;;125.10;44.10;;;4.10;99.90;;;;;;5054848;28;20038;-46
2022/01/26 11:07:17;;;;;;;123.53;46.70;;;4.10;99.90;;;;;;5038421;28;20084;-46
2022/01/26 11:09:48;;;;;;;115.70;44.72;;;4.10;99.90;;;;;;5037919;28;20030;-46
2022/01/26 11:12:26;;;;;;;116.78;45.05;;;4.10;99.90;;;;;;5042239;28;20036;-46
2022/01/26 11:14:58;;;;;;;112.57;43.83;;;4.20;99.90;;;;;;5042155;28;20025;-48
2022/01/26 11:17:34;;;;;;;117.93;46.60;;;4.20;99.90;;;;;;5040559;28;20045;-44
2022/01/26 11:20:13;;;;;;;108.80;42.47;;;4.20;99.90;;;;;;5038153;28;20049;-43
2022/01/26 11:22:57;;;;;;;112.07;44.45;;;4.10;99.90;;;;;;5055874;28;20022;-47
2022/01/26 11:25:27;;;;;;;107.25;40.28;;;4.20;99.90;;;;;;5037561;28;20075;-46
2022/01/26 11:27:54;;;;;;;98.45;37.53;;;4.20;99.90;;;;;;5042155;28;20083;-46
2022/01/26 11:30:29;;;;;;;109.97;40.50;;;4.20;99.90;;;;;;5037692;28;20041;-45
2022/01/26 11:33:13;;;;;;;113.72;42.50;;;4.20;99.90;;;;;;5039101;28;20025;-47
2022/01/26 11:35:43;;;;;;;99.97;38.85;;;4.20;99.90;;;;;;5037062;28;20025;-45
2022/01/26 11:46:58;;;;;;;106.72;39.58;;;4.20;99.90;;;;;;5037801;28;20124;-45
2022/01/26 11:49:33;;;;;;;102.30;39.10;;;4.20;99.90;;;;;;5055855;28;20739;-45
2022/01/26 11:52:00;;;;;;;97.20;36.03;;;4.20;99.90;;;;;;5041194;28;20025;-46
2022/01/26 11:54:29;;;;;;;105.82;36.88;;;4.20;99.90;;;;;;5056680;28;20654;-48
2022/01/26 11:57:01;;;;;;;103.40;39.22;;;4.30;99.90;;;;;;5055084;28;20022;-49
2022/01/26 11:59:30;;;;;;;97.55;37.92;;;4.40;99.90;;;;;;5039940;28;20064;-48
2022/01/26 12:02:01;;;;;;;97.50;38.05;;;4.40;99.90;;;;;;5041162;28;20026;-44
2022/01/26 12:04:31;;;;;;;92.97;35.53;;;4.40;99.90;;;;;;5040644;28;20060;-45
2022/01/26 12:07:11;;;;;;;88.95;33.97;;;4.40;99.90;;;;;;5041737;28;20037;-45
2022/01/26 12:09:39;;;;;;;97.07;36.95;;;4.40;99.90;;;;;;5043467;28;20021;-46
2022/01/26 12:12:06;;;;;;;87.05;35.75;;;4.40;99.90;;;;;;5041301;28;20022;-44
2022/01/26 12:14:34;;;;;;;93.00;35.22;;;4.40;99.90;;;;;;5040839;28;20041;-45
2022/01/26 12:17:03;;;;;;;98.78;35.72;;;4.40;99.90;;;;;;5041639;28;20397;-46
2022/01/26 12:19:35;;;;;;;87.82;34.50;;;4.40;99.90;;;;;;5040306;28;20032;-46
2022/01/26 12:36:27;;;;;;;89.05;35.25;;;4.30;99.90;;;;;;5021953;28;20029;-46
2022/01/26 12:42:12;;;;;;;81.80;33.80;;;4.50;99.90;;;;;;5018363;28;20045;-45
2022/01/26 12:44:38;;;;;;;78.85;32.95;;;4.50;99.90;;;;;;5035217;28;20033;-45
2022/01/26 12:47:04;;;;;;;81.78;32.97;;;4.50;99.90;;;;;;5020620;28;20445;-46
2022/01/26 12:49:31;;;;;;;89.50;33.05;;;4.60;99.90;;;;;;5021780;28;20026;-47
2022/01/26 12:51:57;;;;;;;81.38;32.55;;;4.60;99.90;;;;;;5036247;28;20033;-47
2022/01/26 12:54:23;;;;;;;84.72;33.08;;;4.60;99.90;;;;;;5021379;28;20465;-47
2022/01/26 12:57:01;;;;;;;83.55;33.00;;;4.50;99.90;;;;;;5021263;28;20038;-46
2022/01/26 12:59:27;;;;;;;75.70;32.95;;;4.50;99.90;;;;;;5019593;28;20087;-46
2022/01/26 13:01:54;;;;;;;87.38;34.05;;;4.50;99.90;;;;;;5020006;28;20088;-45
2022/01/26 13:04:20;;;;;;;81.15;30.85;;;4.50;99.90;;;;;;5019612;28;20022;-47
2022/01/26 13:07:29;;;;;;;82.70;31.67;;;4.50;99.90;;;;;;5018417;28;20041;-45
2022/01/26 13:09:54;;;;;;;84.35;31.45;;;4.50;99.90;;;;;;5035414;28;20034;-43
2022/01/26 13:12:31;;;;;;;78.30;32.08;;;4.50;99.90;;;;;;5019309;28;20060;-44
2022/01/26 13:15:17;;;;;;;75.13;30.90;;;4.50;99.90;;;;;;5020840;28;20053;-46
2022/01/26 13:17:52;;;;;;;77.13;32.28;;;4.50;99.90;;;;;;5020691;28;20060;-48
2022/01/26 13:20:55;;;;;;;87.40;30.95;;;4.50;99.90;;;;;;5020856;28;20397;-46
2022/01/26 13:23:52;;;;;;;85.63;31.88;;;4.50;99.90;;;;;;5019596;28;20117;-48
2022/01/26 13:29:13;;;;;;;88.75;32.60;;;4.60;99.90;;;;;;5019796;28;20065;-44
2022/01/26 13:37:20;;;;;;;73.18;29.73;;;4.60;99.90;;;;;;5015322;28;20038;-45
2022/01/26 13:45:14;;;;;;;70.03;28.67;;;4.70;99.90;;;;;;5014507;28;20030;-47
2022/01/26 13:50:22;;;;;;;69.90;28.92;;;4.70;99.90;;;;;;5015030;28;20429;-45
2022/01/26 13:55:48;;;;;;;70.28;28.10;;;4.70;99.90;;;;;;5019401;28;20046;-49
2022/01/26 14:01:24;;;;;;;68.30;28.90;;;4.70;99.90;;;;;;5002557;28;20076;-47
2022/01/26 14:03:55;;;;;;;76.53;28.83;;;4.70;99.90;;;;;;5020121;28;20025;-45
2022/01/26 14:06:21;;;;;;;73.05;28.50;;;4.70;99.90;;;;;;5026160;28;20048;-46
2022/01/26 14:08:46;;;;;;;79.78;31.63;;;4.70;99.90;;;;;;5022450;28;20128;-45
2022/01/26 14:11:12;;;;;;;68.07;28.35;;;4.70;99.90;;;;;;5020617;28;20131;-46
2022/01/26 14:13:38;;;;;;;81.38;31.65;;;4.70;99.90;;;;;;5018577;28;20032;-46
2022/01/26 14:16:05;;;;;;;65.68;29.88;;;4.80;99.90;;;;;;5019742;28;20089;-45
2022/01/26 14:23:59;;;;;;;74.10;30.25;;;4.80;99.90;;;;;;5020785;28;20037;-46
2022/01/26 14:26:29;;;;;;;69.43;28.58;;;4.80;99.90;;;;;;5021310;28;20050;-47
2022/01/26 14:28:55;;;;;;;66.70;28.88;;;4.90;99.90;;;;;;5021425;28;20026;-45
2022/01/26 14:31:52;;;;;;;72.03;29.92;;;4.90;99.90;;;;;;5021364;28;20030;-46
2022/01/26 14:35:16;;;;;;;76.63;29.67;;;4.90;99.90;;;;;;5020205;28;20037;-46
2022/01/26 14:39:35;;;;;;;82.50;32.45;;;4.90;99.90;;;;;;5014713;28;20053;-46
2022/01/26 14:56:13;;;;;;;72.22;30.35;;;5.00;99.90;;;;;;5023658;28;20034;-49
2022/01/26 15:34:11;;;;;;;67.57;29.15;;;4.90;99.90;;;;;;5021889;28;20120;-45
2022/01/26 15:48:43;;;;;;;67.20;28.92;;;4.90;99.90;;;;;;5021179;28;20053;-45
2022/01/26 16:07:10;;;;;;;76.43;31.83;;;4.90;99.90;;;;;;5021620;28;20052;-45
2022/01/26 18:49:13;;;;;;;52.47;23.67;;;5.30;99.90;;;;;;5022654;28;20080;-44
2022/01/26 18:49:57;;;;;;;53.28;23.73;;;5.30;99.90;;;;;;5021975;28;20045;-44
2022/01/26 18:52:26;;;;;;;51.45;23.05;;;5.30;99.90;;;;;;5018775;28;20065;-45
2022/01/26 18:54:51;;;;;;;52.78;24.63;;;5.40;99.90;;;;;;5017855;28;20088;-45
2022/01/26 18:57:17;;;;;;;49.33;22.77;;;5.40;99.90;;;;;;5025062;28;20033;-43
2022/01/26 18:59:43;;;;;;;52.63;22.33;;;5.40;99.90;;;;;;5020378;28;20049;-44
2022/01/26 19:02:08;;;;;;;51.78;23.23;;;5.40;99.90;;;;;;5035793;28;20030;-45
2022/01/26 19:04:46;;;;;;;50.90;21.92;;;5.40;99.90;;;;;;5002778;28;20026;-44
2022/01/26 19:07:12;;;;;;;48.83;21.25;;;5.40;99.90;;;;;;5018509;28;20052;-44
2022/01/26 19:09:42;;;;;;;55.25;22.10;;;5.40;99.90;;;;;;5035243;28;20033;-44
2022/01/26 19:12:12;;;;;;;51.55;21.58;;;5.50;99.90;;;;;;5020149;28;20112;-44
2022/01/26 19:14:41;;;;;;;45.70;19.83;;;5.50;99.90;;;;;;5034171;28;20456;-44
2022/01/26 19:17:35;;;;;;;50.03;20.67;;;5.50;99.90;;;;;;5018209;28;20033;-44
2022/01/26 19:25:12;;;;;;;55.50;24.23;;;5.50;99.90;;;;;;5020588;28;20441;-46
2022/01/26 19:27:54;;;;;;;59.42;25.75;;;5.40;99.90;;;;;;5020985;28;20037;-44